createdAt,value
2016-06-19T00:00:14.589Z,971.42
2016-06-19T00:01:14.593Z,971.4
2016-06-19T00:02:14.596Z,971.38
2016-06-19T00:03:14.600Z,971.38
2016-06-19T00:04:14.619Z,971.37
2016-06-19T00:05:14.607Z,971.44
2016-06-19T00:06:14.595Z,971.41
2016-06-19T00:07:14.614Z,971.37
2016-06-19T00:08:14.602Z,971.4
2016-06-19T00:09:14.605Z,971.39
2016-06-19T00:10:14.610Z,971.4
2016-06-19T00:11:14.612Z,971.39
2016-06-19T00:12:14.616Z,971.4
2016-06-19T00:13:14.620Z,971.42
2016-06-19T00:14:14.623Z,971.4
2016-06-19T00:15:14.627Z,971.42
2016-06-19T00:16:14.614Z,971.43
2016-06-19T00:17:14.617Z,971.39
2016-06-19T00:18:14.621Z,971.41
2016-06-19T00:19:14.624Z,971.39
2016-06-19T00:20:14.628Z,971.37
2016-06-19T00:21:14.632Z,971.38
2016-06-19T00:22:14.619Z,971.38
2016-06-19T00:23:14.622Z,971.37
2016-06-19T00:24:14.625Z,971.36
2016-06-19T00:25:14.629Z,971.36
2016-06-19T00:26:14.633Z,971.36
2016-06-19T00:27:14.636Z,971.36
2016-06-19T00:28:14.640Z,971.33
2016-06-19T00:29:14.642Z,971.34
2016-06-19T00:30:14.631Z,971.33
2016-06-19T00:31:14.650Z,971.33
2016-06-19T00:32:14.669Z,971.33
2016-06-19T00:33:14.642Z,971.36
2016-06-19T00:34:14.645Z,971.36
2016-06-19T00:35:14.649Z,971.37
2016-06-19T00:36:14.652Z,971.33
2016-06-19T00:37:14.656Z,971.34
2016-06-19T00:38:14.659Z,971.32
2016-06-19T00:39:14.646Z,971.35
2016-06-19T00:40:14.650Z,971.33
2016-06-19T00:41:14.653Z,971.35
2016-06-19T00:42:14.657Z,971.39
2016-06-19T00:43:14.692Z,971.38
2016-06-19T00:44:14.664Z,971.37
2016-06-19T00:45:14.668Z,971.39
2016-06-19T00:46:14.655Z,971.38
2016-06-19T00:47:14.658Z,971.37
2016-06-19T00:48:14.661Z,971.38
2016-06-19T00:49:14.665Z,971.39
2016-06-19T00:50:14.669Z,971.39
2016-06-19T00:51:14.672Z,971.38
2016-06-19T00:52:14.676Z,971.39
2016-06-19T00:53:14.664Z,971.41
2016-06-19T00:54:14.667Z,971.35
2016-06-19T00:55:14.670Z,971.36
2016-06-19T00:56:14.674Z,971.33
2016-06-19T00:57:14.678Z,971.34
2016-06-19T00:58:14.681Z,971.36
2016-06-19T00:59:14.685Z,971.32
2016-06-19T01:00:14.688Z,971.37
2016-06-19T01:01:14.692Z,971.35
2016-06-19T01:02:14.695Z,971.36
2016-06-19T01:03:14.683Z,971.35
2016-06-19T01:04:14.686Z,971.36
2016-06-19T01:05:14.689Z,971.33
2016-06-19T01:06:14.693Z,971.35
2016-06-19T01:07:14.696Z,971.32
2016-06-19T01:08:14.699Z,971.32
2016-06-19T01:09:14.703Z,971.31
2016-06-19T01:10:14.691Z,971.35
2016-06-19T01:11:14.695Z,971.33
2016-06-19T01:12:14.699Z,971.3
2016-06-19T01:13:14.702Z,971.28
2016-06-19T01:14:14.706Z,971.26
2016-06-19T01:15:14.709Z,971.29
2016-06-19T01:16:14.713Z,971.31
2016-06-19T01:17:14.716Z,971.31
2016-06-19T01:18:14.860Z,971.31
2016-06-19T01:19:14.707Z,971.3
2016-06-19T01:20:14.710Z,971.32
2016-06-19T01:21:14.714Z,971.31
2016-06-19T01:22:14.717Z,971.32
2016-06-19T01:23:14.720Z,971.31
2016-06-19T01:24:14.708Z,971.3
2016-06-19T01:25:14.712Z,971.31
2016-06-19T01:26:14.715Z,971.33
2016-06-19T01:27:14.719Z,971.31
2016-06-19T01:28:14.722Z,971.33
2016-06-19T01:29:14.725Z,971.36
2016-06-19T01:30:14.729Z,971.33
2016-06-19T01:31:14.718Z,971.36
2016-06-19T01:32:14.721Z,971.38
2016-06-19T01:33:14.724Z,971.38
2016-06-19T01:34:14.728Z,971.37
2016-06-19T01:35:14.731Z,971.35
2016-06-19T01:36:14.735Z,971.36
2016-06-19T01:37:14.738Z,971.37
2016-06-19T01:38:14.741Z,971.34
2016-06-19T01:39:14.745Z,971.39
2016-06-19T01:40:14.733Z,971.33
2016-06-19T01:41:14.736Z,971.33
2016-06-19T01:42:14.739Z,971.35
2016-06-19T01:43:14.743Z,971.36
2016-06-19T01:44:14.746Z,971.35
2016-06-19T01:45:14.750Z,971.36
2016-06-19T01:46:14.753Z,971.36
2016-06-19T01:47:14.740Z,971.39
2016-06-19T01:48:14.744Z,971.32
2016-06-19T01:49:14.748Z,971.29
2016-06-19T01:50:14.751Z,971.34
2016-06-19T01:51:14.754Z,971.33
2016-06-19T01:52:14.758Z,971.35
2016-06-19T01:53:14.762Z,971.34
2016-06-19T01:54:14.750Z,971.32
2016-06-19T01:55:14.757Z,971.34
2016-06-19T01:56:14.765Z,971.38
2016-06-19T01:57:14.772Z,971.35
2016-06-19T01:58:14.779Z,971.34
2016-06-19T01:59:14.785Z,971.34
2016-06-19T02:00:14.790Z,971.33
2016-06-19T02:01:14.795Z,971.36
2016-06-19T02:02:14.799Z,971.35
2016-06-19T02:03:14.789Z,971.36
2016-06-19T02:04:14.793Z,971.34
2016-06-19T02:05:14.797Z,971.32
2016-06-19T02:06:14.801Z,971.33
2016-06-19T02:07:14.805Z,971.33
2016-06-19T02:08:14.809Z,971.32
2016-06-19T02:09:14.813Z,971.33
2016-06-19T02:10:14.816Z,971.35
2016-06-19T02:11:14.820Z,971.29
2016-06-19T02:12:14.808Z,971.31
2016-06-19T02:13:14.811Z,971.31
2016-06-19T02:14:14.815Z,971.29
2016-06-19T02:15:14.803Z,971.29
2016-06-19T02:16:14.805Z,971.3
2016-06-19T02:17:14.809Z,971.31
2016-06-19T02:18:14.813Z,971.32
2016-06-19T02:19:14.817Z,971.34
2016-06-19T02:20:14.819Z,971.34
2016-06-19T02:21:14.823Z,971.32
2016-06-19T02:22:14.827Z,971.32
2016-06-19T02:23:14.830Z,971.31
2016-06-19T02:24:14.833Z,971.31
2016-06-19T02:25:14.821Z,971.31
2016-06-19T02:26:14.825Z,971.31
2016-06-19T02:27:14.828Z,971.29
2016-06-19T02:28:14.831Z,971.31
2016-06-19T02:29:14.835Z,971.29
2016-06-19T02:30:14.823Z,971.3
2016-06-19T02:31:14.842Z,971.29
2016-06-19T02:32:14.830Z,971.31
2016-06-19T02:33:14.834Z,971.31
2016-06-19T02:34:14.837Z,971.29
2016-06-19T02:35:14.841Z,971.3
2016-06-19T02:36:14.844Z,971.3
2016-06-19T02:37:14.847Z,971.31
2016-06-19T02:38:14.835Z,971.32
2016-06-19T02:39:14.838Z,971.28
2016-06-19T02:40:14.841Z,971.3
2016-06-19T02:41:14.845Z,971.28
2016-06-19T02:42:14.849Z,971.28
2016-06-19T02:43:14.852Z,971.27
2016-06-19T02:44:14.856Z,971.28
2016-06-19T02:45:14.859Z,971.31
2016-06-19T02:46:14.846Z,971.33
2016-06-19T02:47:14.850Z,971.31
2016-06-19T02:48:14.854Z,971.32
2016-06-19T02:49:14.856Z,971.38
2016-06-19T02:50:14.860Z,971.37
2016-06-19T02:51:14.864Z,971.38
2016-06-19T02:52:14.868Z,971.42
2016-06-19T02:53:14.855Z,971.4
2016-06-19T02:54:14.859Z,971.42
2016-06-19T02:55:14.863Z,971.41
2016-06-19T02:56:14.866Z,971.45
2016-06-19T02:57:14.869Z,971.46
2016-06-19T02:58:14.873Z,971.45
2016-06-19T02:59:14.877Z,971.45
2016-06-19T03:00:14.880Z,971.46
2016-06-19T03:01:14.867Z,971.49
2016-06-19T03:02:14.871Z,971.53
2016-06-19T03:03:14.874Z,971.5
2016-06-19T03:04:14.878Z,971.52
2016-06-19T03:05:14.881Z,971.52
2016-06-19T03:06:14.885Z,971.55
2016-06-19T03:07:14.888Z,971.52
2016-06-19T03:08:14.877Z,971.51
2016-06-19T03:09:14.880Z,971.53
2016-06-19T03:10:14.883Z,971.55
2016-06-19T03:11:14.887Z,971.55
2016-06-19T03:12:14.890Z,971.54
2016-06-19T03:13:14.894Z,971.54
2016-06-19T03:14:14.898Z,971.58
2016-06-19T03:15:14.885Z,971.54
2016-06-19T03:16:14.888Z,971.53
2016-06-19T03:17:14.892Z,971.59
2016-06-19T03:18:14.990Z,971.58
2016-06-19T03:19:14.898Z,971.56
2016-06-19T03:20:14.902Z,971.57
2016-06-19T03:21:14.906Z,971.62
2016-06-19T03:22:14.893Z,971.59
2016-06-19T03:23:14.896Z,971.6
2016-06-19T03:24:14.900Z,971.62
2016-06-19T03:25:14.904Z,971.65
2016-06-19T03:26:14.907Z,971.65
2016-06-19T03:27:14.910Z,971.69
2016-06-19T03:28:14.914Z,971.69
2016-06-19T03:29:14.902Z,971.67
2016-06-19T03:30:14.906Z,971.64
2016-06-19T03:31:14.909Z,971.68
2016-06-19T03:32:14.912Z,971.67
2016-06-19T03:33:14.916Z,971.67
2016-06-19T03:34:14.920Z,971.69
2016-06-19T03:35:14.923Z,971.72
2016-06-19T03:36:14.926Z,971.71
2016-06-19T03:37:14.914Z,971.71
2016-06-19T03:38:14.917Z,971.72
2016-06-19T03:39:14.921Z,971.67
2016-06-19T03:40:14.924Z,971.72
2016-06-19T03:41:14.928Z,971.72
2016-06-19T03:42:14.915Z,971.74
2016-06-19T03:43:14.919Z,971.78
2016-06-19T03:44:14.922Z,971.73
2016-06-19T03:45:14.925Z,971.72
2016-06-19T03:46:14.929Z,971.74
2016-06-19T03:47:14.933Z,971.74
2016-06-19T03:48:14.935Z,971.74
2016-06-19T03:49:14.940Z,971.76
2016-06-19T03:50:14.943Z,971.75
2016-06-19T03:51:14.931Z,971.75
2016-06-19T03:52:14.934Z,971.79
2016-06-19T03:53:14.939Z,971.75
2016-06-19T03:54:14.942Z,971.79
2016-06-19T03:55:14.945Z,971.81
2016-06-19T03:56:14.933Z,971.79
2016-06-19T03:57:14.952Z,971.82
2016-06-19T03:58:14.940Z,971.84
2016-06-19T03:59:14.943Z,971.86
2016-06-19T04:00:14.947Z,971.87
2016-06-19T04:01:14.950Z,971.85
2016-06-19T04:02:14.953Z,971.79
2016-06-19T04:03:14.957Z,971.83
2016-06-19T04:04:14.960Z,971.82
2016-06-19T04:05:14.949Z,971.82
2016-06-19T04:06:14.952Z,971.82
2016-06-19T04:07:14.956Z,971.79
2016-06-19T04:08:14.959Z,971.82
2016-06-19T04:09:14.963Z,971.82
2016-06-19T04:10:14.966Z,971.82
2016-06-19T04:11:14.970Z,971.81
2016-06-19T04:12:14.959Z,971.8
2016-06-19T04:13:14.965Z,971.8
2016-06-19T04:14:14.985Z,971.8
2016-06-19T04:15:14.974Z,971.82
2016-06-19T04:16:14.979Z,971.81
2016-06-19T04:17:14.983Z,971.81
2016-06-19T04:18:14.988Z,971.82
2016-06-19T04:19:14.975Z,971.83
2016-06-19T04:20:14.980Z,971.82
2016-06-19T04:21:14.984Z,971.84
2016-06-19T04:22:14.987Z,971.82
2016-06-19T04:23:14.990Z,971.83
2016-06-19T04:24:14.994Z,971.86
2016-06-19T04:25:14.998Z,971.86
2016-06-19T04:26:14.986Z,971.86
2016-06-19T04:27:14.989Z,971.86
2016-06-19T04:28:14.993Z,971.89
2016-06-19T04:29:14.996Z,971.91
2016-06-19T04:30:15.000Z,971.91
2016-06-19T04:31:15.003Z,971.91
2016-06-19T04:32:15.006Z,971.93
2016-06-19T04:33:14.994Z,971.93
2016-06-19T04:34:14.998Z,971.98
2016-06-19T04:35:15.001Z,972
2016-06-19T04:36:15.004Z,971.99
2016-06-19T04:37:15.024Z,971.97
2016-06-19T04:38:15.012Z,971.97
2016-06-19T04:39:15.014Z,971.94
2016-06-19T04:40:15.018Z,971.95
2016-06-19T04:41:15.022Z,971.96
2016-06-19T04:42:15.009Z,971.94
2016-06-19T04:43:15.013Z,972
2016-06-19T04:44:15.017Z,972.01
2016-06-19T04:45:15.019Z,971.95
2016-06-19T04:46:15.023Z,971.99
2016-06-19T04:47:15.027Z,972.01
2016-06-19T04:48:15.030Z,972.01
2016-06-19T04:49:15.033Z,972.01
2016-06-19T04:50:15.022Z,972.05
2016-06-19T04:51:15.025Z,972
2016-06-19T04:52:15.029Z,972.01
2016-06-19T04:53:15.032Z,972.02
2016-06-19T04:54:15.035Z,972.04
2016-06-19T04:55:15.023Z,972.01
2016-06-19T04:56:15.043Z,972.01
2016-06-19T04:57:15.030Z,972.05
2016-06-19T04:58:15.033Z,972.02
2016-06-19T04:59:15.037Z,972.03
2016-06-19T05:00:15.040Z,972.03
2016-06-19T05:01:15.044Z,972.04
2016-06-19T05:02:15.048Z,972.01
2016-06-19T05:03:15.051Z,972.01
2016-06-19T05:04:15.054Z,972.01
2016-06-19T05:05:15.043Z,972.03
2016-06-19T05:06:15.046Z,972.02
2016-06-19T05:07:15.050Z,972.01
2016-06-19T05:08:15.053Z,972.02
2016-06-19T05:09:15.056Z,972.02
2016-06-19T05:10:15.060Z,971.99
2016-06-19T05:11:15.048Z,972.02
2016-06-19T05:12:15.067Z,972.04
2016-06-19T05:13:15.054Z,971.98
2016-06-19T05:14:15.058Z,972.04
2016-06-19T05:15:15.061Z,972.05
2016-06-19T05:16:15.065Z,972.05
2016-06-19T05:17:15.068Z,972.05
2016-06-19T05:18:15.228Z,972.03
2016-06-19T05:19:15.075Z,972.04
2016-06-19T05:20:15.078Z,972.02
2016-06-19T05:21:15.082Z,972.03
2016-06-19T05:22:15.070Z,972.03
2016-06-19T05:23:15.073Z,972.07
2016-06-19T05:24:15.077Z,972.08
2016-06-19T05:25:15.080Z,972.11
2016-06-19T05:26:15.068Z,972.11
2016-06-19T05:27:15.087Z,972.08
2016-06-19T05:28:15.090Z,972.08
2016-06-19T05:29:15.079Z,972.1
2016-06-19T05:30:15.082Z,972.12
2016-06-19T05:31:15.085Z,972.08
2016-06-19T05:32:15.090Z,972.13
2016-06-19T05:33:15.092Z,972.09
2016-06-19T05:34:15.096Z,972.11
2016-06-19T05:35:15.100Z,972.12
2016-06-19T05:36:15.087Z,972.12
2016-06-19T05:37:15.091Z,972.12
2016-06-19T05:38:15.093Z,972.16
2016-06-19T05:39:15.097Z,972.16
2016-06-19T05:40:15.101Z,972.15
2016-06-19T05:41:15.105Z,972.15
2016-06-19T05:42:15.107Z,972.17
2016-06-19T05:43:15.112Z,972.16
2016-06-19T05:44:15.114Z,972.19
2016-06-19T05:45:15.102Z,972.21
2016-06-19T05:46:15.105Z,972.18
2016-06-19T05:47:15.109Z,972.25
2016-06-19T05:48:15.113Z,972.21
2016-06-19T05:49:15.115Z,972.24
2016-06-19T05:50:15.119Z,972.28
2016-06-19T05:51:15.123Z,972.3
2016-06-19T05:52:15.127Z,972.28
2016-06-19T05:53:15.114Z,972.3
2016-06-19T05:54:15.119Z,972.27
2016-06-19T05:55:15.121Z,972.35
2016-06-19T05:56:15.125Z,972.31
2016-06-19T05:57:15.129Z,972.34
2016-06-19T05:58:15.132Z,972.34
2016-06-19T05:59:15.136Z,972.35
2016-06-19T06:00:15.138Z,972.39
2016-06-19T06:01:15.142Z,972.37
2016-06-19T06:02:15.130Z,972.38
2016-06-19T06:03:15.133Z,972.4
2016-06-19T06:04:15.136Z,972.38
2016-06-19T06:05:15.140Z,972.38
2016-06-19T06:06:15.143Z,972.42
2016-06-19T06:07:15.147Z,972.45
2016-06-19T06:08:15.151Z,972.41
2016-06-19T06:09:15.154Z,972.42
2016-06-19T06:10:15.157Z,972.41
2016-06-19T06:11:15.161Z,972.42
2016-06-19T06:12:15.150Z,972.4
2016-06-19T06:13:15.153Z,972.42
2016-06-19T06:14:15.157Z,972.41
2016-06-19T06:15:15.160Z,972.44
2016-06-19T06:16:15.163Z,972.44
2016-06-19T06:17:15.167Z,972.45
2016-06-19T06:18:15.170Z,972.46
2016-06-19T06:19:15.173Z,972.46
2016-06-19T06:20:15.177Z,972.47
2016-06-19T06:21:15.180Z,972.48
2016-06-19T06:22:15.168Z,972.46
2016-06-19T06:23:15.171Z,972.5
2016-06-19T06:24:15.175Z,972.5
2016-06-19T06:25:15.179Z,972.54
2016-06-19T06:26:15.181Z,972.49
2016-06-19T06:27:15.185Z,972.52
2016-06-19T06:28:15.195Z,972.55
2016-06-19T06:29:15.204Z,972.49
2016-06-19T06:30:15.198Z,972.54
2016-06-19T06:31:15.207Z,972.51
2016-06-19T06:32:15.215Z,972.52
2016-06-19T06:33:15.221Z,972.52
2016-06-19T06:34:15.227Z,972.52
2016-06-19T06:35:15.233Z,972.54
2016-06-19T06:36:15.239Z,972.53
2016-06-19T06:37:15.244Z,972.55
2016-06-19T06:38:15.248Z,972.52
2016-06-19T06:39:15.238Z,972.49
2016-06-19T06:40:15.242Z,972.55
2016-06-19T06:41:15.246Z,972.53
2016-06-19T06:42:15.251Z,972.55
2016-06-19T06:43:15.253Z,972.56
2016-06-19T06:44:15.257Z,972.54
2016-06-19T06:45:15.260Z,972.56
2016-06-19T06:46:15.265Z,972.59
2016-06-19T06:47:15.268Z,972.59
2016-06-19T06:48:15.271Z,972.59
2016-06-19T06:49:15.275Z,972.6
2016-06-19T06:50:15.278Z,972.59
2016-06-19T06:51:15.265Z,972.61
2016-06-19T06:52:15.269Z,972.58
2016-06-19T06:53:15.272Z,972.63
2016-06-19T06:54:15.276Z,972.61
2016-06-19T06:55:15.279Z,972.66
2016-06-19T06:56:15.283Z,972.67
2016-06-19T06:57:15.286Z,972.65
2016-06-19T06:58:15.290Z,972.66
2016-06-19T06:59:15.293Z,972.67
2016-06-19T07:00:15.297Z,972.68
2016-06-19T07:01:15.300Z,972.67
2016-06-19T07:02:15.303Z,972.68
2016-06-19T07:03:15.307Z,972.67
2016-06-19T07:04:15.310Z,972.68
2016-06-19T07:05:15.314Z,972.68
2016-06-19T07:06:15.317Z,972.68
2016-06-19T07:07:15.305Z,972.68
2016-06-19T07:08:15.325Z,972.71
2016-06-19T07:09:15.327Z,972.73
2016-06-19T07:10:15.315Z,972.73
2016-06-19T07:11:15.334Z,972.73
2016-06-19T07:12:15.322Z,972.77
2016-06-19T07:13:15.342Z,972.76
2016-06-19T07:14:15.329Z,972.82
2016-06-19T07:15:15.332Z,972.75
2016-06-19T07:16:15.335Z,972.76
2016-06-19T07:17:15.339Z,972.78
2016-06-19T07:18:15.453Z,972.78
2016-06-19T07:19:15.346Z,972.77
2016-06-19T07:20:15.350Z,972.8
2016-06-19T07:21:15.354Z,972.78
2016-06-19T07:22:15.356Z,972.76
2016-06-19T07:23:15.360Z,972.76
2016-06-19T07:24:15.363Z,972.79
2016-06-19T07:25:15.367Z,972.78
2016-06-19T07:26:15.370Z,972.78
2016-06-19T07:27:15.374Z,972.76
2016-06-19T07:28:15.378Z,972.75
2016-06-19T07:29:15.380Z,972.77
2016-06-19T07:30:15.384Z,972.78
2016-06-19T07:31:15.388Z,972.8
2016-06-19T07:32:15.391Z,972.74
2016-06-19T07:33:15.395Z,972.82
2016-06-19T07:34:15.398Z,972.81
2016-06-19T07:35:15.402Z,972.8
2016-06-19T07:36:15.405Z,972.79
2016-06-19T07:37:15.408Z,972.82
2016-06-19T07:38:15.412Z,972.83
2016-06-19T07:39:15.415Z,972.85
2016-06-19T07:40:15.419Z,972.86
2016-06-19T07:41:15.422Z,972.84
2016-06-19T07:42:15.426Z,972.84
2016-06-19T07:43:15.445Z,972.83
2016-06-19T07:44:15.432Z,972.85
2016-06-19T07:45:15.436Z,972.87
2016-06-19T07:46:15.440Z,972.9
2016-06-19T07:47:15.443Z,972.87
2016-06-19T07:48:15.447Z,972.85
2016-06-19T07:49:15.450Z,972.85
2016-06-19T07:50:15.453Z,972.87
2016-06-19T07:51:15.456Z,972.87
2016-06-19T07:52:15.460Z,972.89
2016-06-19T07:53:15.464Z,972.86
2016-06-19T07:54:15.467Z,972.85
2016-06-19T07:55:15.471Z,972.82
2016-06-19T07:56:15.474Z,972.84
2016-06-19T07:57:15.478Z,972.85
2016-06-19T07:58:15.481Z,972.82
2016-06-19T07:59:15.485Z,972.8
2016-06-19T08:00:15.488Z,972.78
2016-06-19T08:01:15.491Z,972.79
2016-06-19T08:02:15.495Z,972.79
2016-06-19T08:03:15.498Z,972.79
2016-06-19T08:04:15.502Z,972.79
2016-06-19T08:05:15.505Z,972.78
2016-06-19T08:06:15.509Z,972.8
2016-06-19T08:07:15.513Z,972.8
2016-06-19T08:08:15.515Z,972.8
2016-06-19T08:09:15.520Z,972.87
2016-06-19T08:10:15.522Z,972.83
2016-06-19T08:11:15.526Z,972.89
2016-06-19T08:12:15.529Z,972.9
2016-06-19T08:13:15.533Z,972.96
2016-06-19T08:14:15.553Z,972.9
2016-06-19T08:15:15.540Z,972.92
2016-06-19T08:16:15.560Z,972.9
2016-06-19T08:17:15.546Z,972.93
2016-06-19T08:18:15.550Z,972.97
2016-06-19T08:19:15.554Z,972.96
2016-06-19T08:20:15.557Z,973
2016-06-19T08:21:15.561Z,972.98
2016-06-19T08:22:15.564Z,973
2016-06-19T08:23:15.568Z,973
2016-06-19T08:24:15.571Z,973.01
2016-06-19T08:25:15.574Z,973.03
2016-06-19T08:26:15.578Z,973.05
2016-06-19T08:27:15.597Z,973.06
2016-06-19T08:28:15.601Z,973
2016-06-19T08:29:15.588Z,973.05
2016-06-19T08:30:15.608Z,973.02
2016-06-19T08:31:15.595Z,973.03
2016-06-19T08:32:15.599Z,973.02
2016-06-19T08:33:15.602Z,973.01
2016-06-19T08:34:15.622Z,973.03
2016-06-19T08:35:15.609Z,973.02
2016-06-19T08:36:15.612Z,973.01
2016-06-19T08:37:15.616Z,973.09
2016-06-19T08:38:15.619Z,973.07
2016-06-19T08:39:15.623Z,973.09
2016-06-19T08:40:15.627Z,973.05
2016-06-19T08:41:15.630Z,973.1
2016-06-19T08:42:15.633Z,973.1
2016-06-19T08:43:15.636Z,973.12
2016-06-19T08:44:15.642Z,973.05
2016-06-19T08:45:15.649Z,973.06
2016-06-19T08:46:15.655Z,973.03
2016-06-19T08:47:15.661Z,973.06
2016-06-19T08:48:15.667Z,973.1
2016-06-19T08:49:15.672Z,973.11
2016-06-19T08:50:15.676Z,973.08
2016-06-19T08:51:15.681Z,973.09
2016-06-19T08:52:15.685Z,973.13
2016-06-19T08:53:15.690Z,973.1
2016-06-19T08:54:15.694Z,973.14
2016-06-19T08:55:15.714Z,973.14
2016-06-19T08:56:15.702Z,973.11
2016-06-19T08:57:15.705Z,973.11
2016-06-19T08:58:15.710Z,973.1
2016-06-19T08:59:15.713Z,973.11
2016-06-19T09:00:15.717Z,973.12
2016-06-19T09:01:15.720Z,973.11
2016-06-19T09:02:15.709Z,973.09
2016-06-19T09:03:15.727Z,973.1
2016-06-19T09:04:15.715Z,973.1
2016-06-19T09:05:15.734Z,973.11
2016-06-19T09:06:15.722Z,973.14
2016-06-19T09:07:15.741Z,973.14
2016-06-19T09:08:15.729Z,973.15
2016-06-19T09:09:15.748Z,973.14
2016-06-19T09:10:15.736Z,973.13
2016-06-19T09:11:15.739Z,973.12
2016-06-19T09:12:15.743Z,973.16
2016-06-19T09:13:15.761Z,973.18
2016-06-19T09:14:15.750Z,973.14
2016-06-19T09:15:15.753Z,973.17
2016-06-19T09:16:15.757Z,973.13
2016-06-19T09:17:15.761Z,973.12
2016-06-19T09:18:15.858Z,973.11
2016-06-19T09:19:15.768Z,973.11
2016-06-19T09:20:15.771Z,973.14
2016-06-19T09:21:15.775Z,973.11
2016-06-19T09:22:15.777Z,973.08
2016-06-19T09:23:15.781Z,973.1
2016-06-19T09:24:15.784Z,973.1
2016-06-19T09:25:15.788Z,973.1
2016-06-19T09:26:15.792Z,973.09
2016-06-19T09:27:15.795Z,973.1
2016-06-19T09:28:15.799Z,973.11
2016-06-19T09:29:15.801Z,973.16
2016-06-19T09:30:15.805Z,973.14
2016-06-19T09:31:15.809Z,973.13
2016-06-19T09:32:15.813Z,973.17
2016-06-19T09:33:15.816Z,973.18
2016-06-19T09:34:15.820Z,973.18
2016-06-19T09:35:15.822Z,973.21
2016-06-19T09:36:15.826Z,973.22
2016-06-19T09:37:15.829Z,973.24
2016-06-19T09:38:15.833Z,973.26
2016-06-19T09:39:15.837Z,973.23
2016-06-19T09:40:15.839Z,973.23
2016-06-19T09:41:15.843Z,973.22
2016-06-19T09:42:15.847Z,973.22
2016-06-19T09:43:15.850Z,973.23
2016-06-19T09:44:15.854Z,973.22
2016-06-19T09:45:15.857Z,973.24
2016-06-19T09:46:15.861Z,973.23
2016-06-19T09:47:15.864Z,973.22
2016-06-19T09:48:15.867Z,973.21
2016-06-19T09:49:15.871Z,973.18
2016-06-19T09:50:15.858Z,973.19
2016-06-19T09:51:15.878Z,973.21
2016-06-19T09:52:15.866Z,973.19
2016-06-19T09:53:15.869Z,973.17
2016-06-19T09:54:15.872Z,973.2
2016-06-19T09:55:15.892Z,973.21
2016-06-19T09:56:15.895Z,973.23
2016-06-19T09:57:15.899Z,973.22
2016-06-19T09:58:15.902Z,973.24
2016-06-19T09:59:15.890Z,973.25
2016-06-19T10:00:15.909Z,973.25
2016-06-19T10:01:15.912Z,973.24
2016-06-19T10:02:15.900Z,973.23
2016-06-19T10:03:15.904Z,973.24
2016-06-19T10:04:15.923Z,973.23
2016-06-19T10:05:15.910Z,973.26
2016-06-19T10:06:15.914Z,973.23
2016-06-19T10:07:15.917Z,973.25
2016-06-19T10:08:15.937Z,973.22
2016-06-19T10:09:15.955Z,973.22
2016-06-19T10:10:15.944Z,973.23
2016-06-19T10:11:15.947Z,973.25
2016-06-19T10:12:15.950Z,973.23
2016-06-19T10:13:15.954Z,973.2
2016-06-19T10:14:15.957Z,973.19
2016-06-19T10:15:15.961Z,973.21
2016-06-19T10:16:15.964Z,973.19
2016-06-19T10:17:15.968Z,973.22
2016-06-19T10:18:15.971Z,973.26
2016-06-19T10:19:15.975Z,973.27
2016-06-19T10:20:15.978Z,973.3
2016-06-19T10:21:15.982Z,973.31
2016-06-19T10:22:15.985Z,973.35
2016-06-19T10:23:15.989Z,973.39
2016-06-19T10:24:15.992Z,973.42
2016-06-19T10:25:15.995Z,973.42
2016-06-19T10:26:15.999Z,973.43
2016-06-19T10:27:16.002Z,973.44
2016-06-19T10:28:16.021Z,973.52
2016-06-19T10:29:16.009Z,973.46
2016-06-19T10:30:16.013Z,973.52
2016-06-19T10:31:16.017Z,973.51
2016-06-19T10:32:16.020Z,973.53
2016-06-19T10:33:16.024Z,973.52
2016-06-19T10:34:16.027Z,973.54
2016-06-19T10:35:16.030Z,973.53
2016-06-19T10:36:16.034Z,973.51
2016-06-19T10:37:16.037Z,973.54
2016-06-19T10:38:16.040Z,973.54
2016-06-19T10:39:16.044Z,973.53
2016-06-19T10:40:16.047Z,973.55
2016-06-19T10:41:16.051Z,973.55
2016-06-19T10:42:16.055Z,973.6
2016-06-19T10:43:16.058Z,973.57
2016-06-19T10:44:16.062Z,973.57
2016-06-19T10:45:16.064Z,973.56
2016-06-19T10:46:16.068Z,973.56
2016-06-19T10:47:16.071Z,973.56
2016-06-19T10:48:16.075Z,973.56
2016-06-19T10:49:16.079Z,973.57
2016-06-19T10:50:16.082Z,973.51
2016-06-19T10:51:16.086Z,973.51
2016-06-19T10:52:16.088Z,973.49
2016-06-19T10:53:16.093Z,973.5
2016-06-19T10:54:16.096Z,973.47
2016-06-19T10:55:16.099Z,973.47
2016-06-19T10:56:16.102Z,973.46
2016-06-19T10:57:16.106Z,973.45
2016-06-19T10:58:16.110Z,973.47
2016-06-19T10:59:16.113Z,973.47
2016-06-19T11:00:16.117Z,973.48
2016-06-19T11:01:16.122Z,973.48
2016-06-19T11:02:16.127Z,973.5
2016-06-19T11:03:16.132Z,973.51
2016-06-19T11:04:16.137Z,973.5
2016-06-19T11:05:16.141Z,973.54
2016-06-19T11:06:16.129Z,973.59
2016-06-19T11:07:16.149Z,973.52
2016-06-19T11:08:16.137Z,973.58
2016-06-19T11:09:16.157Z,973.56
2016-06-19T11:10:16.145Z,973.53
2016-06-19T11:11:16.165Z,973.54
2016-06-19T11:12:16.153Z,973.55
2016-06-19T11:13:16.172Z,973.52
2016-06-19T11:14:16.177Z,973.51
2016-06-19T11:15:16.164Z,973.54
2016-06-19T11:16:16.167Z,973.55
2016-06-19T11:17:16.171Z,973.53
2016-06-19T11:18:16.174Z,973.56
2016-06-19T11:19:16.178Z,973.51
2016-06-19T11:20:16.181Z,973.5
2016-06-19T11:21:16.185Z,973.53
2016-06-19T11:22:16.188Z,973.49
2016-06-19T11:23:16.192Z,973.5
2016-06-19T11:24:16.195Z,973.51
2016-06-19T11:25:16.198Z,973.5
2016-06-19T11:26:16.202Z,973.52
2016-06-19T11:27:16.206Z,973.51
2016-06-19T11:28:16.209Z,973.55
2016-06-19T11:29:16.212Z,973.58
2016-06-19T11:30:16.216Z,973.62
2016-06-19T11:31:16.219Z,973.63
2016-06-19T11:32:16.223Z,973.6
2016-06-19T11:33:16.226Z,973.56
2016-06-19T11:34:16.229Z,973.6
2016-06-19T11:35:16.233Z,973.6
2016-06-19T11:36:16.236Z,973.64
2016-06-19T11:37:16.240Z,973.65
2016-06-19T11:38:16.243Z,973.71
2016-06-19T11:39:16.232Z,973.69
2016-06-19T11:40:16.250Z,973.7
2016-06-19T11:41:16.253Z,973.71
2016-06-19T11:42:16.243Z,973.69
2016-06-19T11:43:16.246Z,973.71
2016-06-19T11:44:16.249Z,973.7
2016-06-19T11:45:16.253Z,973.74
2016-06-19T11:46:16.256Z,973.74
2016-06-19T11:47:16.291Z,973.75
2016-06-19T11:48:16.263Z,973.76
2016-06-19T11:49:16.266Z,973.74
2016-06-19T11:50:16.270Z,973.81
2016-06-19T11:51:16.273Z,973.82
2016-06-19T11:52:16.276Z,973.8
2016-06-19T11:53:16.281Z,973.79
2016-06-19T11:54:16.284Z,973.81
2016-06-19T11:55:16.288Z,973.81
2016-06-19T11:56:16.291Z,973.81
2016-06-19T11:57:16.295Z,973.82
2016-06-19T11:58:16.297Z,973.76
2016-06-19T11:59:16.301Z,973.76
2016-06-19T12:00:16.305Z,973.73
2016-06-19T12:01:16.308Z,973.72
2016-06-19T12:02:16.311Z,973.71
2016-06-19T12:03:16.315Z,973.67
2016-06-19T12:04:16.303Z,973.67
2016-06-19T12:05:16.322Z,973.68
2016-06-19T12:06:16.309Z,973.7
2016-06-19T12:07:16.329Z,973.66
2016-06-19T12:08:16.317Z,973.7
2016-06-19T12:09:16.335Z,973.7
2016-06-19T12:10:16.323Z,973.68
2016-06-19T12:11:16.326Z,973.69
2016-06-19T12:12:16.331Z,973.69
2016-06-19T12:13:16.334Z,973.67
2016-06-19T12:14:16.337Z,973.67
2016-06-19T12:15:16.340Z,973.64
2016-06-19T12:16:16.344Z,973.64
2016-06-19T12:17:16.347Z,973.61
2016-06-19T12:18:16.351Z,973.59
2016-06-19T12:19:16.354Z,973.62
2016-06-19T12:20:16.358Z,973.6
2016-06-19T12:21:16.362Z,973.57
2016-06-19T12:22:16.364Z,973.6
2016-06-19T12:23:16.368Z,973.58
2016-06-19T12:24:16.372Z,973.57
2016-06-19T12:25:16.375Z,973.58
2016-06-19T12:26:16.379Z,973.57
2016-06-19T12:27:16.382Z,973.62
2016-06-19T12:28:16.385Z,973.61
2016-06-19T12:29:16.389Z,973.57
2016-06-19T12:30:16.393Z,973.63
2016-06-19T12:31:16.395Z,973.64